Brandy Nicole — WDH3897 — position and weather

sailwx.info

Track history (hours):
 
Tides and Currents Weather Stations Pressure Air Temp Water Temp Dewpoint Dewpoint Depression Visibility Wind Speed Wind Dir Waves Ship Positions

Brandy Nicole

Owner: Broussard Brothers, Inc., Abbeville, LA. More information available from US FCC via Universal Licensing System and Coast Guard Vessel Documentation Center.

Last reported at 2018-Jun-16 11:24 UTC. Time now 2018-Jun-18 02:14 UTC.
Position N 29°32' W 090°52'.

; draft 2.2 m.

Type: Towing. MMSI: 367612050.

Date/timePositionNaut miles runAvg speedWind from/ knotsBaromVisibWave heightAir tempDewpointWater temp
2018-Jun-16 11:24N 29°32' W 090°52'3 7.8
2018-Jun-16 11:00N 29°32' W 090°48'4 7.1
2018-Jun-16 10:30N 29°34' W 090°45'2 4.2
2018-Jun-16 10:00N 29°35' W 090°43'2 3.7
2018-Jun-16 09:30N 29°37' W 090°41'3 6.4
2018-Jun-16 09:00N 29°35' W 090°38'3 6.1
2018-Jun-16 08:30N 29°34' W 090°35'2 4.2
2018-Jun-16 08:00N 29°34' W 090°32'0 0.7
2018-Jun-16 07:27N 29°35' W 090°32'0 0.0
2018-Jun-16 06:54N 29°35' W 090°32'0 1.0
2018-Jun-16 06:29N 29°34' W 090°32'2 3.1
2018-Jun-16 06:00N 29°34' W 090°31'4 7.9
2018-Jun-16 05:29N 29°33' W 090°26'1 0.3
2018-Jun-16 01:57N 29°33' W 090°25'3 6.3
2018-Jun-16 01:29N 29°33' W 090°28'4 8.6
2018-Jun-16 01:00N 29°34' W 090°33'1 1.7
2018-Jun-16 00:28N 29°35' W 090°32'0 0.1
2018-Jun-15 23:59N 29°35' W 090°32'0 0.6
2018-Jun-15 23:26N 29°34' W 090°32'0 0.7
2018-Jun-15 23:00N 29°34' W 090°32'0 0.7
2018-Jun-15 22:29N 29°34' W 090°33'1 2.5
2018-Jun-15 22:00N 29°34' W 090°34'2 4.2
2018-Jun-15 21:30N 29°35' W 090°36'2 3.6
2018-Jun-15 21:00N 29°35' W 090°38'2 3.0
2018-Jun-15 20:30N 29°36' W 090°40'0 0.7
2018-Jun-15 19:55N 29°36' W 090°40'1 3.2
2018-Jun-15 19:30N 29°37' W 090°42'2 3.1
2018-Jun-15 19:00N 29°35' W 090°43'2 3.5
2018-Jun-15 18:30N 29°34' W 090°44'1 2.4
2018-Jun-15 18:00N 29°34' W 090°45'1 2.9
2018-Jun-15 17:30N 29°32' W 090°46'2 4.6
2018-Jun-15 17:00N 29°32' W 090°48'2 4.3
2018-Jun-15 16:30N 29°32' W 090°51'  
2018-Jun-10 19:59N 29°51' W 091°55'3 7.0
2018-Jun-10 19:30N 29°50' W 091°58'4 7.0
2018-Jun-10 19:00N 29°49' W 092°02'4 7.2
2018-Jun-10 18:30N 29°48' W 092°06'3 7.0
2018-Jun-10 18:00N 29°47' W 092°10'1 2.3
2018-Jun-10 17:30N 29°47' W 092°11'0 0.0
2018-Jun-10 17:00N 29°47' W 092°11'1 1.8
2018-Jun-10 16:30N 29°47' W 092°10'0 0.1
2018-Jun-10 16:00N 29°47' W 092°10'1 1.7
2018-Jun-10 15:30N 29°47' W 092°11'0 0.1
2018-Jun-10 15:00N 29°47' W 092°11'0 0.0
2018-Jun-10 14:00N 29°47' W 092°11'0 0.0
2018-Jun-10 13:30N 29°47' W 092°11'0 0.0
2018-Jun-10 13:00N 29°47' W 092°11'0 0.0
2018-Jun-10 12:30N 29°47' W 092°11'0 0.0
2018-Jun-10 12:00N 29°47' W 092°11'0 0.0
2018-Jun-10 11:29N 29°47' W 092°11'0 0.0
2018-Jun-10 11:00N 29°47' W 092°11'0 0.0
2018-Jun-10 10:30N 29°47' W 092°11'0 0.0
2018-Jun-10 09:58N 29°47' W 092°11'0 0.0
2018-Jun-10 09:30N 29°47' W 092°11'0 0.0
2018-Jun-10 09:00N 29°47' W 092°11'0 0.0
2018-Jun-10 08:30N 29°47' W 092°11'0 0.0
2018-Jun-10 08:00N 29°47' W 092°11'0 0.0
2018-Jun-10 07:30N 29°47' W 092°11'0 0.0
2018-Jun-10 07:00N 29°47' W 092°11'0 0.0
2018-Jun-10 06:29N 29°47' W 092°11'0 0.0
2018-Jun-10 06:00N 29°47' W 092°11'0 0.0
2018-Jun-10 05:30N 29°47' W 092°11'0 0.0
2018-Jun-10 05:00N 29°47' W 092°11'0 0.0
2018-Jun-10 04:30N 29°47' W 092°11'0 0.0
2018-Jun-10 04:00N 29°47' W 092°11'0 0.0
2018-Jun-10 03:30N 29°47' W 092°11'0 0.0
2018-Jun-10 03:00N 29°47' W 092°11'0 0.0
2018-Jun-10 02:30N 29°47' W 092°11'0 0.0
2018-Jun-10 01:58N 29°47' W 092°11'0 0.0
2018-Jun-10 01:30N 29°47' W 092°11'0 0.0
2018-Jun-10 01:00N 29°47' W 092°11'0 0.0
2018-Jun-10 00:30N 29°47' W 092°11'0 0.0
2018-Jun-09 23:59N 29°47' W 092°11'0 0.0
2018-Jun-09 23:30N 29°47' W 092°11'0 0.0
2018-Jun-09 23:00N 29°47' W 092°11'0 0.0
2018-Jun-09 22:30N 29°47' W 092°11'0 0.0
2018-Jun-09 22:00N 29°47' W 092°11'0 0.0
2018-Jun-09 21:30N 29°47' W 092°11'0 0.0
2018-Jun-09 21:00N 29°47' W 092°11'0 0.0
2018-Jun-09 20:30N 29°47' W 092°11'0 0.0
2018-Jun-09 20:00N 29°47' W 092°11'0 0.0
2018-Jun-09 19:29N 29°47' W 092°11'0 0.0
2018-Jun-09 19:00N 29°47' W 092°11'0 0.0
2018-Jun-09 18:30N 29°47' W 092°11'0 0.0
2018-Jun-09 18:00N 29°47' W 092°11'0 0.0
2018-Jun-09 17:30N 29°47' W 092°11'0 0.0
2018-Jun-09 17:00N 29°47' W 092°11'0 0.0
2018-Jun-09 16:29N 29°47' W 092°11'0 0.0
2018-Jun-09 16:00N 29°47' W 092°11'0 0.0
2018-Jun-09 15:00N 29°47' W 092°11'0 0.0
2018-Jun-09 14:30N 29°47' W 092°11'0 0.0
2018-Jun-09 14:00N 29°47' W 092°11'0 0.0
2018-Jun-09 13:30N 29°47' W 092°11'0 0.1
2018-Jun-09 13:00N 29°47' W 092°11'0 0.1
2018-Jun-09 12:30N 29°47' W 092°11'0 0.0
2018-Jun-09 12:00N 29°47' W 092°11'0 0.0
2018-Jun-09 11:30N 29°47' W 092°11'0 0.0
2018-Jun-09 11:00N 29°47' W 092°11'0 0.0
2018-Jun-09 10:30N 29°47' W 092°11'0 0.0
2018-Jun-09 09:59N 29°47' W 092°11'0 0.0
2018-Jun-09 09:30N 29°47' W 092°11'0 0.0
2018-Jun-09 09:00N 29°47' W 092°11'0 0.0
2018-Jun-09 08:30N 29°47' W 092°11'0 0.0
2018-Jun-09 07:58N 29°47' W 092°11'0 0.0
2018-Jun-09 07:30N 29°47' W 092°11'0 0.0
2018-Jun-09 07:00N 29°47' W 092°11'0 0.0
2018-Jun-09 06:30N 29°47' W 092°11'0 0.0
2018-Jun-09 06:00N 29°47' W 092°11'0 0.0
2018-Jun-09 05:30N 29°47' W 092°11'0 0.0
2018-Jun-09 05:00N 29°47' W 092°11'0 0.0
2018-Jun-09 04:30N 29°47' W 092°11'0 0.0
2018-Jun-09 04:00N 29°47' W 092°11'0 0.0
2018-Jun-09 03:30N 29°47' W 092°11'0 0.0
2018-Jun-09 03:00N 29°47' W 092°11'0 0.0
2018-Jun-09 02:30N 29°47' W 092°11'1 1.7
2018-Jun-09 02:00N 29°47' W 092°10'1 1.5
2018-Jun-09 01:29N 29°47' W 092°11'1 3.0
2018-Jun-09 01:00N 29°47' W 092°13'0 0.6
2018-Jun-09 00:30N 29°47' W 092°13'3 6.1
2018-Jun-09 00:00N 29°49' W 092°16'4 7.8
2018-Jun-08 23:30N 29°51' W 092°20'4 0.1
2018-Jun-07 14:16N 29°53' W 092°24'2 7.0
2018-Jun-07 14:00N 29°52' W 092°22'3 6.6
2018-Jun-07 13:31N 29°50' W 092°19'3 6.6
2018-Jun-07 13:00N 29°49' W 092°16'3 6.8
2018-Jun-07 12:30N 29°47' W 092°12'2 3.9
2018-Jun-07 12:00N 29°47' W 092°10'0 0.1
2018-Jun-07 11:30N 29°47' W 092°10'0 0.0
2018-Jun-07 11:00N 29°47' W 092°10'1 1.8
2018-Jun-07 10:30N 29°47' W 092°11'0 0.0
2018-Jun-07 09:59N 29°47' W 092°11'0 0.0
2018-Jun-07 09:30N 29°47' W 092°11'0 0.0
2018-Jun-07 09:00N 29°47' W 092°11'0 0.0
2018-Jun-07 08:29N 29°47' W 092°11'0 0.0
2018-Jun-07 08:00N 29°47' W 092°11'0 0.0
2018-Jun-07 07:30N 29°47' W 092°11'0 0.0
2018-Jun-07 07:00N 29°47' W 092°11'0 0.0
2018-Jun-07 06:30N 29°47' W 092°11'0 0.0
2018-Jun-07 06:00N 29°47' W 092°11'0 0.0
2018-Jun-07 05:29N 29°47' W 092°11'0 0.0
2018-Jun-07 05:00N 29°47' W 092°11'0 0.0
2018-Jun-07 04:30N 29°47' W 092°11'0 0.0
2018-Jun-07 04:00N 29°47' W 092°11'0 0.0
2018-Jun-07 03:30N 29°47' W 092°11'0 0.0
2018-Jun-07 03:00N 29°47' W 092°11'0 0.0
2018-Jun-07 02:30N 29°47' W 092°11'0 0.0
2018-Jun-07 02:00N 29°47' W 092°11'0 0.0
2018-Jun-07 01:30N 29°47' W 092°11'0 0.0
2018-Jun-07 00:59N 29°47' W 092°11'0 0.0
2018-Jun-07 00:30N 29°47' W 092°11'0 0.0
2018-Jun-06 23:59N 29°47' W 092°11'0 0.0
2018-Jun-06 23:30N 29°47' W 092°11'0 0.0
2018-Jun-06 23:00N 29°47' W 092°11'0 0.0
2018-Jun-06 22:30N 29°47' W 092°11'0 0.0
2018-Jun-06 22:00N 29°47' W 092°11'0 0.0
2018-Jun-06 21:30N 29°47' W 092°11'0 0.0
2018-Jun-06 21:00N 29°47' W 092°11'0 0.0
2018-Jun-06 20:29N 29°47' W 092°11'0 0.0
2018-Jun-06 20:00N 29°47' W 092°11'0 0.0
2018-Jun-06 19:30N 29°47' W 092°11'0 0.0
2018-Jun-06 19:00N 29°47' W 092°11'0 0.0
2018-Jun-06 18:30N 29°47' W 092°11'0 0.0
2018-Jun-06 18:00N 29°47' W 092°11'0 0.0
2018-Jun-06 17:30N 29°47' W 092°11'0 0.0
2018-Jun-06 17:00N 29°47' W 092°11'0 0.0
2018-Jun-06 16:29N 29°47' W 092°11'0 0.0
2018-Jun-06 16:00N 29°47' W 092°11'0 0.0
2018-Jun-06 15:30N 29°47' W 092°11'0 0.0
2018-Jun-06 15:00N 29°47' W 092°11'1 1.8
2018-Jun-06 14:30N 29°47' W 092°10'0 0.5
2018-Jun-06 14:00N 29°46' W 092°10'0 0.5
2018-Jun-06 13:30N 29°47' W 092°10'0 0.0
2018-Jun-06 13:00N 29°47' W 092°10'1 1.8
2018-Jun-06 12:30N 29°47' W 092°11'0 0.0
2018-Jun-06 12:00N 29°47' W 092°11'0 0.0
2018-Jun-06 11:30N 29°47' W 092°11'  
Track history (hours):
 
Tides and Currents Weather Stations Pressure Air Temp Water Temp Dewpoint Dewpoint Depression Visibility Wind Speed Wind Dir Waves Ship Positions

Brandy Nicole

Owner: Broussard Brothers, Inc., Abbeville, LA. More information available from US FCC via Universal Licensing System and Coast Guard Vessel Documentation Center.

Last reported at 2018-Jun-16 11:24 UTC. Time now 2018-Jun-18 02:14 UTC.
Position N 29°32' W 090°52'.

; draft 2.2 m.

Type: Towing. MMSI: 367612050.

Date/timePositionNaut miles runAvg speedWind from/ knotsBaromVisibWave heightAir tempDewpointWater temp
2018-Jun-16 11:24N 29°32' W 090°52'3 7.8
2018-Jun-16 11:00N 29°32' W 090°48'4 7.1
2018-Jun-16 10:30N 29°34' W 090°45'2 4.2
2018-Jun-16 10:00N 29°35' W 090°43'2 3.7
2018-Jun-16 09:30N 29°37' W 090°41'3 6.4
2018-Jun-16 09:00N 29°35' W 090°38'3 6.1
2018-Jun-16 08:30N 29°34' W 090°35'2 4.2
2018-Jun-16 08:00N 29°34' W 090°32'0 0.7
2018-Jun-16 07:27N 29°35' W 090°32'0 0.0
2018-Jun-16 06:54N 29°35' W 090°32'0 1.0
2018-Jun-16 06:29N 29°34' W 090°32'2 3.1
2018-Jun-16 06:00N 29°34' W 090°31'4 7.9
2018-Jun-16 05:29N 29°33' W 090°26'1 0.3
2018-Jun-16 01:57N 29°33' W 090°25'3 6.3
2018-Jun-16 01:29N 29°33' W 090°28'4 8.6
2018-Jun-16 01:00N 29°34' W 090°33'1 1.7
2018-Jun-16 00:28N 29°35' W 090°32'0 0.1
2018-Jun-15 23:59N 29°35' W 090°32'0 0.6
2018-Jun-15 23:26N 29°34' W 090°32'0 0.7
2018-Jun-15 23:00N 29°34' W 090°32'0 0.7
2018-Jun-15 22:29N 29°34' W 090°33'1 2.5
2018-Jun-15 22:00N 29°34' W 090°34'2 4.2
2018-Jun-15 21:30N 29°35' W 090°36'2 3.6
2018-Jun-15 21:00N 29°35' W 090°38'2 3.0
2018-Jun-15 20:30N 29°36' W 090°40'0 0.7
2018-Jun-15 19:55N 29°36' W 090°40'1 3.2
2018-Jun-15 19:30N 29°37' W 090°42'2 3.1
2018-Jun-15 19:00N 29°35' W 090°43'2 3.5
2018-Jun-15 18:30N 29°34' W 090°44'1 2.4
2018-Jun-15 18:00N 29°34' W 090°45'1 2.9
2018-Jun-15 17:30N 29°32' W 090°46'2 4.6
2018-Jun-15 17:00N 29°32' W 090°48'2 4.3
2018-Jun-15 16:30N 29°32' W 090°51'  
2018-Jun-10 19:59N 29°51' W 091°55'3 7.0
2018-Jun-10 19:30N 29°50' W 091°58'4 7.0
2018-Jun-10 19:00N 29°49' W 092°02'4 7.2
2018-Jun-10 18:30N 29°48' W 092°06'3 7.0
2018-Jun-10 18:00N 29°47' W 092°10'1 2.3
2018-Jun-10 17:30N 29°47' W 092°11'0 0.0
2018-Jun-10 17:00N 29°47' W 092°11'1 1.8
2018-Jun-10 16:30N 29°47' W 092°10'0 0.1
2018-Jun-10 16:00N 29°47' W 092°10'1 1.7
2018-Jun-10 15:30N 29°47' W 092°11'0 0.1
2018-Jun-10 15:00N 29°47' W 092°11'0 0.0
2018-Jun-10 14:00N 29°47' W 092°11'0 0.0
2018-Jun-10 13:30N 29°47' W 092°11'0 0.0
2018-Jun-10 13:00N 29°47' W 092°11'0 0.0
2018-Jun-10 12:30N 29°47' W 092°11'0 0.0
2018-Jun-10 12:00N 29°47' W 092°11'0 0.0
2018-Jun-10 11:29N 29°47' W 092°11'0 0.0
2018-Jun-10 11:00N 29°47' W 092°11'0 0.0
2018-Jun-10 10:30N 29°47' W 092°11'0 0.0
2018-Jun-10 09:58N 29°47' W 092°11'0 0.0
2018-Jun-10 09:30N 29°47' W 092°11'0 0.0
2018-Jun-10 09:00N 29°47' W 092°11'0 0.0
2018-Jun-10 08:30N 29°47' W 092°11'0 0.0
2018-Jun-10 08:00N 29°47' W 092°11'0 0.0
2018-Jun-10 07:30N 29°47' W 092°11'0 0.0
2018-Jun-10 07:00N 29°47' W 092°11'0 0.0
2018-Jun-10 06:29N 29°47' W 092°11'0 0.0
2018-Jun-10 06:00N 29°47' W 092°11'0 0.0
2018-Jun-10 05:30N 29°47' W 092°11'0 0.0
2018-Jun-10 05:00N 29°47' W 092°11'0 0.0
2018-Jun-10 04:30N 29°47' W 092°11'0 0.0
2018-Jun-10 04:00N 29°47' W 092°11'0 0.0
2018-Jun-10 03:30N 29°47' W 092°11'0 0.0
2018-Jun-10 03:00N 29°47' W 092°11'0 0.0
2018-Jun-10 02:30N 29°47' W 092°11'0 0.0
2018-Jun-10 01:58N 29°47' W 092°11'0 0.0
2018-Jun-10 01:30N 29°47' W 092°11'0 0.0
2018-Jun-10 01:00N 29°47' W 092°11'0 0.0
2018-Jun-10 00:30N 29°47' W 092°11'0 0.0
2018-Jun-09 23:59N 29°47' W 092°11'0 0.0
2018-Jun-09 23:30N 29°47' W 092°11'0 0.0
2018-Jun-09 23:00N 29°47' W 092°11'0 0.0
2018-Jun-09 22:30N 29°47' W 092°11'0 0.0
2018-Jun-09 22:00N 29°47' W 092°11'0 0.0
2018-Jun-09 21:30N 29°47' W 092°11'0 0.0
2018-Jun-09 21:00N 29°47' W 092°11'0 0.0
2018-Jun-09 20:30N 29°47' W 092°11'0 0.0
2018-Jun-09 20:00N 29°47' W 092°11'0 0.0
2018-Jun-09 19:29N 29°47' W 092°11'0 0.0
2018-Jun-09 19:00N 29°47' W 092°11'0 0.0
2018-Jun-09 18:30N 29°47' W 092°11'0 0.0
2018-Jun-09 18:00N 29°47' W 092°11'0 0.0
2018-Jun-09 17:30N 29°47' W 092°11'0 0.0
2018-Jun-09 17:00N 29°47' W 092°11'0 0.0
2018-Jun-09 16:29N 29°47' W 092°11'0 0.0
2018-Jun-09 16:00N 29°47' W 092°11'0 0.0
2018-Jun-09 15:00N 29°47' W 092°11'0 0.0
2018-Jun-09 14:30N 29°47' W 092°11'0 0.0
2018-Jun-09 14:00N 29°47' W 092°11'0 0.0
2018-Jun-09 13:30N 29°47' W 092°11'0 0.1
2018-Jun-09 13:00N 29°47' W 092°11'0 0.1
2018-Jun-09 12:30N 29°47' W 092°11'0 0.0
2018-Jun-09 12:00N 29°47' W 092°11'0 0.0
2018-Jun-09 11:30N 29°47' W 092°11'0 0.0
2018-Jun-09 11:00N 29°47' W 092°11'0 0.0
2018-Jun-09 10:30N 29°47' W 092°11'0 0.0
2018-Jun-09 09:59N 29°47' W 092°11'0 0.0
2018-Jun-09 09:30N 29°47' W 092°11'0 0.0
2018-Jun-09 09:00N 29°47' W 092°11'0 0.0
2018-Jun-09 08:30N 29°47' W 092°11'0 0.0
2018-Jun-09 07:58N 29°47' W 092°11'0 0.0
2018-Jun-09 07:30N 29°47' W 092°11'0 0.0
2018-Jun-09 07:00N 29°47' W 092°11'0 0.0
2018-Jun-09 06:30N 29°47' W 092°11'0 0.0
2018-Jun-09 06:00N 29°47' W 092°11'0 0.0
2018-Jun-09 05:30N 29°47' W 092°11'0 0.0
2018-Jun-09 05:00N 29°47' W 092°11'0 0.0
2018-Jun-09 04:30N 29°47' W 092°11'0 0.0
2018-Jun-09 04:00N 29°47' W 092°11'0 0.0
2018-Jun-09 03:30N 29°47' W 092°11'0 0.0
2018-Jun-09 03:00N 29°47' W 092°11'0 0.0
2018-Jun-09 02:30N 29°47' W 092°11'1 1.7
2018-Jun-09 02:00N 29°47' W 092°10'1 1.5
2018-Jun-09 01:29N 29°47' W 092°11'1 3.0
2018-Jun-09 01:00N 29°47' W 092°13'0 0.6
2018-Jun-09 00:30N 29°47' W 092°13'3 6.1
2018-Jun-09 00:00N 29°49' W 092°16'4 7.8
2018-Jun-08 23:30N 29°51' W 092°20'4 0.1
2018-Jun-07 14:16N 29°53' W 092°24'2 7.0
2018-Jun-07 14:00N 29°52' W 092°22'3 6.6
2018-Jun-07 13:31N 29°50' W 092°19'3 6.6
2018-Jun-07 13:00N 29°49' W 092°16'3 6.8
2018-Jun-07 12:30N 29°47' W 092°12'2 3.9
2018-Jun-07 12:00N 29°47' W 092°10'0 0.1
2018-Jun-07 11:30N 29°47' W 092°10'0 0.0
2018-Jun-07 11:00N 29°47' W 092°10'1 1.8
2018-Jun-07 10:30N 29°47' W 092°11'0 0.0
2018-Jun-07 09:59N 29°47' W 092°11'0 0.0
2018-Jun-07 09:30N 29°47' W 092°11'0 0.0
2018-Jun-07 09:00N 29°47' W 092°11'0 0.0
2018-Jun-07 08:29N 29°47' W 092°11'0 0.0
2018-Jun-07 08:00N 29°47' W 092°11'0 0.0
2018-Jun-07 07:30N 29°47' W 092°11'0 0.0
2018-Jun-07 07:00N 29°47' W 092°11'0 0.0
2018-Jun-07 06:30N 29°47' W 092°11'0 0.0
2018-Jun-07 06:00N 29°47' W 092°11'0 0.0
2018-Jun-07 05:29N 29°47' W 092°11'0 0.0
2018-Jun-07 05:00N 29°47' W 092°11'0 0.0
2018-Jun-07 04:30N 29°47' W 092°11'0 0.0
2018-Jun-07 04:00N 29°47' W 092°11'0 0.0
2018-Jun-07 03:30N 29°47' W 092°11'0 0.0
2018-Jun-07 03:00N 29°47' W 092°11'0 0.0
2018-Jun-07 02:30N 29°47' W 092°11'0 0.0
2018-Jun-07 02:00N 29°47' W 092°11'0 0.0
2018-Jun-07 01:30N 29°47' W 092°11'0 0.0
2018-Jun-07 00:59N 29°47' W 092°11'0 0.0
2018-Jun-07 00:30N 29°47' W 092°11'0 0.0
2018-Jun-06 23:59N 29°47' W 092°11'0 0.0
2018-Jun-06 23:30N 29°47' W 092°11'0 0.0
2018-Jun-06 23:00N 29°47' W 092°11'0 0.0
2018-Jun-06 22:30N 29°47' W 092°11'0 0.0
2018-Jun-06 22:00N 29°47' W 092°11'0 0.0
2018-Jun-06 21:30N 29°47' W 092°11'0 0.0
2018-Jun-06 21:00N 29°47' W 092°11'0 0.0
2018-Jun-06 20:29N 29°47' W 092°11'0 0.0
2018-Jun-06 20:00N 29°47' W 092°11'0 0.0
2018-Jun-06 19:30N 29°47' W 092°11'0 0.0
2018-Jun-06 19:00N 29°47' W 092°11'0 0.0
2018-Jun-06 18:30N 29°47' W 092°11'0 0.0
2018-Jun-06 18:00N 29°47' W 092°11'0 0.0
2018-Jun-06 17:30N 29°47' W 092°11'0 0.0
2018-Jun-06 17:00N 29°47' W 092°11'0 0.0
2018-Jun-06 16:29N 29°47' W 092°11'0 0.0
2018-Jun-06 16:00N 29°47' W 092°11'0 0.0
2018-Jun-06 15:30N 29°47' W 092°11'0 0.0
2018-Jun-06 15:00N 29°47' W 092°11'1 1.8
2018-Jun-06 14:30N 29°47' W 092°10'0 0.5
2018-Jun-06 14:00N 29°46' W 092°10'0 0.5
2018-Jun-06 13:30N 29°47' W 092°10'0 0.0
2018-Jun-06 13:00N 29°47' W 092°10'1 1.8
2018-Jun-06 12:30N 29°47' W 092°11'0 0.0
2018-Jun-06 12:00N 29°47' W 092°11'0 0.0
2018-Jun-06 11:30N 29°47' W 092°11'  

Dump ship's entire track history